Hikarimaru No.17 — JD2956 — position and weather

sailwx.info

Track history (hours):
 
Tides and Currents Weather Stations Pressure Air Temp Water Temp Dewpoint Dewpoint Depression Visibility Wind Speed Wind Dir Waves Ship Positions

Hikarimaru No.17

Last reported at 2017-Jun-09 09:31 UTC. Time now 2017-Jun-24 15:24 UTC.
Position N 34°36' E 134°56'.
Warning: this ship's position is 15 days out of date.

Length 105 m; draft 6.5 m.

Type: Tanker. MMSI: 431000984.

Date/timePositionNaut miles runAvg speedWind from/ knotsBaromVisibWave heightAir tempDewpointWater temp
2017-Jun-09 09:31N 34°36' E 134°56'013.3
2017-Jun-09 09:30N 34°37' E 134°56'713.4
2017-Jun-09 09:00N 34°36' E 135°04'612.6
2017-Jun-09 08:30N 34°29' E 135°04'813.5
2017-Jun-09 07:56N 34°22' E 135°01'713.1
2017-Jun-09 07:26N 34°16' E 134°59'511.0
2017-Jun-09 06:59N 34°11' E 134°56'3 0.3
2017-Jun-08 21:54N 34°09' E 134°54'513.0
2017-Jun-08 21:30N 34°13' E 134°57'712.5
2017-Jun-08 20:55N 34°20' E 134°59'512.6
2017-Jun-08 20:29N 34°26' E 135°01'612.5
2017-Jun-08 20:00N 34°31' E 135°03'610.9
2017-Jun-08 19:30N 34°37' E 135°01'611.8
2017-Jun-08 18:59N 34°35' E 134°54'  
2017-Jun-04 10:22N 34°35' E 134°51'514.0
2017-Jun-04 10:00N 34°37' E 134°57'612.8
2017-Jun-04 09:30N 34°36' E 135°04'612.1
2017-Jun-04 09:00N 34°30' E 135°04'1113.3
2017-Jun-04 08:12N 34°19' E 135°00'313.5
2017-Jun-04 08:00N 34°17' E 134°59'712.9
2017-Jun-04 07:30N 34°10' E 134°60'8 0.2
2017-Jun-02 11:28N 34°02' E 134°60'1914.1
2017-Jun-02 10:05N 34°21' E 134°59'213.9
2017-Jun-02 09:57N 34°23' E 135°00'613.6
2017-Jun-02 09:28N 34°30' E 135°02'612.7
2017-Jun-02 09:00N 34°36' E 135°03'  
Track history (hours):
 
Tides and Currents Weather Stations Pressure Air Temp Water Temp Dewpoint Dewpoint Depression Visibility Wind Speed Wind Dir Waves Ship Positions

Hikarimaru No.17

Last reported at 2017-Jun-09 09:31 UTC. Time now 2017-Jun-24 15:24 UTC.
Position N 34°36' E 134°56'.
Warning: this ship's position is 15 days out of date.

Length 105 m; draft 6.5 m.

Type: Tanker. MMSI: 431000984.

Date/timePositionNaut miles runAvg speedWind from/ knotsBaromVisibWave heightAir tempDewpointWater temp
2017-Jun-09 09:31N 34°36' E 134°56'013.3
2017-Jun-09 09:30N 34°37' E 134°56'713.4
2017-Jun-09 09:00N 34°36' E 135°04'612.6
2017-Jun-09 08:30N 34°29' E 135°04'813.5
2017-Jun-09 07:56N 34°22' E 135°01'713.1
2017-Jun-09 07:26N 34°16' E 134°59'511.0
2017-Jun-09 06:59N 34°11' E 134°56'3 0.3
2017-Jun-08 21:54N 34°09' E 134°54'513.0
2017-Jun-08 21:30N 34°13' E 134°57'712.5
2017-Jun-08 20:55N 34°20' E 134°59'512.6
2017-Jun-08 20:29N 34°26' E 135°01'612.5
2017-Jun-08 20:00N 34°31' E 135°03'610.9
2017-Jun-08 19:30N 34°37' E 135°01'611.8
2017-Jun-08 18:59N 34°35' E 134°54'  
2017-Jun-04 10:22N 34°35' E 134°51'514.0
2017-Jun-04 10:00N 34°37' E 134°57'612.8
2017-Jun-04 09:30N 34°36' E 135°04'612.1
2017-Jun-04 09:00N 34°30' E 135°04'1113.3
2017-Jun-04 08:12N 34°19' E 135°00'313.5
2017-Jun-04 08:00N 34°17' E 134°59'712.9
2017-Jun-04 07:30N 34°10' E 134°60'8 0.2
2017-Jun-02 11:28N 34°02' E 134°60'1914.1
2017-Jun-02 10:05N 34°21' E 134°59'213.9
2017-Jun-02 09:57N 34°23' E 135°00'613.6
2017-Jun-02 09:28N 34°30' E 135°02'612.7
2017-Jun-02 09:00N 34°36' E 135°03'  

Dump ship's entire track history